createdAt,value
2023-05-19T00:00:11.715Z,50.46
2023-05-19T00:01:11.724Z,50.48
2023-05-19T00:02:11.722Z,50.36
2023-05-19T00:03:11.829Z,50.26
2023-05-19T00:04:11.720Z,50.26
2023-05-19T00:05:11.710Z,50.43
2023-05-19T00:06:11.788Z,50.35
2023-05-19T00:07:11.702Z,50.36
2023-05-19T00:08:11.732Z,50.35
2023-05-19T00:09:11.745Z,50.29
2023-05-19T00:10:11.685Z,50.28
2023-05-19T00:12:11.755Z,50.36
2023-05-19T00:13:11.748Z,50.48
2023-05-19T00:15:11.708Z,50.45
2023-05-19T00:16:11.759Z,50.61
2023-05-19T00:17:11.743Z,50.88
2023-05-19T00:18:11.759Z,50.88
2023-05-19T00:20:11.744Z,50.96
2023-05-19T00:21:11.766Z,50.87
2023-05-19T00:23:11.736Z,50.69
2023-05-19T00:24:11.765Z,50.77
2023-05-19T00:25:11.780Z,50.96
2023-05-19T00:26:11.748Z,50.96
2023-05-19T00:27:11.777Z,50.84
2023-05-19T00:28:11.723Z,50.97
2023-05-19T00:29:11.767Z,51.22
2023-05-19T00:30:11.792Z,51.22
2023-05-19T00:31:11.734Z,51.08
2023-05-19T00:32:11.757Z,51.06
2023-05-19T00:33:11.795Z,50.89
2023-05-19T00:34:11.737Z,50.92
2023-05-19T00:35:11.758Z,50.74
2023-05-19T00:36:11.759Z,50.65
2023-05-19T00:38:11.834Z,50.73
2023-05-19T00:39:11.772Z,50.79
2023-05-19T00:40:11.772Z,50.84
2023-05-19T00:42:11.796Z,50.94
2023-05-19T00:43:11.793Z,50.94
2023-05-19T00:44:11.798Z,50.98
2023-05-19T00:47:11.776Z,51.05
2023-05-19T00:50:11.833Z,51.08
2023-05-19T00:51:11.827Z,50.90
2023-05-19T00:52:11.831Z,51.03
2023-05-19T00:55:11.863Z,51.11
2023-05-19T00:56:11.808Z,51.11
2023-05-19T00:57:11.787Z,51.02
2023-05-19T00:58:11.832Z,51.09
2023-05-19T00:59:11.850Z,50.80
2023-05-19T01:02:11.872Z,51.24
2023-05-19T01:03:12.025Z,51.13
2023-05-19T01:04:11.898Z,51.24
2023-05-19T01:06:11.848Z,51.40
2023-05-19T01:07:11.894Z,51.30
2023-05-19T01:08:11.892Z,51.45
2023-05-19T01:09:11.931Z,51.45
2023-05-19T01:10:11.842Z,51.52
2023-05-19T01:12:11.885Z,51.61
2023-05-19T01:13:11.902Z,51.84
2023-05-19T01:14:11.850Z,51.84
2023-05-19T01:15:11.841Z,51.71
2023-05-19T01:16:11.864Z,51.71
2023-05-19T01:17:11.861Z,51.62
2023-05-19T01:18:12.063Z,51.58
2023-05-19T01:19:11.984Z,51.64
2023-05-19T01:20:11.886Z,51.64
2023-05-19T01:21:11.899Z,51.83
2023-05-19T01:23:11.912Z,51.87
2023-05-19T01:24:11.925Z,51.90
2023-05-19T01:26:11.918Z,51.76
2023-05-19T01:27:11.919Z,51.76
2023-05-19T01:28:11.878Z,51.94
2023-05-19T01:30:11.929Z,51.77
2023-05-19T01:31:11.884Z,51.77
2023-05-19T01:32:12.043Z,51.88
2023-05-19T01:34:11.925Z,51.74
2023-05-19T01:36:11.913Z,51.79
2023-05-19T01:38:11.908Z,51.92
2023-05-19T01:39:11.951Z,51.99
2023-05-19T01:40:11.913Z,51.99
2023-05-19T01:41:11.901Z,51.98
2023-05-19T01:42:11.949Z,51.95
2023-05-19T01:44:11.930Z,51.95
2023-05-19T01:45:11.971Z,51.81
2023-05-19T01:46:12.083Z,51.84
2023-05-19T01:47:11.978Z,51.95
2023-05-19T01:48:12.047Z,52.18
2023-05-19T01:49:11.954Z,52.18
2023-05-19T01:50:11.972Z,52.18
2023-05-19T01:51:12.014Z,52.18
2023-05-19T01:52:12.006Z,52.00
2023-05-19T01:55:12.000Z,51.84
2023-05-19T01:56:11.955Z,51.84
2023-05-19T01:58:11.973Z,51.89
2023-05-19T01:59:12.015Z,52.08
2023-05-19T02:00:12.011Z,52.15
2023-05-19T02:01:12.015Z,52.15
2023-05-19T02:02:11.968Z,52.18
2023-05-19T02:03:12.026Z,52.21
2023-05-19T02:04:12.049Z,52.19
2023-05-19T02:05:12.008Z,51.99
2023-05-19T02:06:12.026Z,52.24
2023-05-19T02:07:12.004Z,52.24
2023-05-19T02:08:12.062Z,52.36
2023-05-19T02:09:12.048Z,52.24
2023-05-19T02:10:11.979Z,52.29
2023-05-19T02:11:12.031Z,52.18
2023-05-19T02:12:12.035Z,52.27
2023-05-19T02:13:12.074Z,52.33
2023-05-19T02:14:12.034Z,52.33
2023-05-19T02:15:12.009Z,52.55
2023-05-19T02:16:12.145Z,52.69
2023-05-19T02:17:12.039Z,52.69
2023-05-19T02:18:12.104Z,52.68
2023-05-19T02:19:12.125Z,52.63
2023-05-19T02:20:12.064Z,52.64
2023-05-19T02:21:12.075Z,52.63
2023-05-19T02:22:12.057Z,52.63
2023-05-19T02:23:12.037Z,52.82
2023-05-19T02:24:12.088Z,52.71
2023-05-19T02:26:12.076Z,52.82
2023-05-19T02:27:12.092Z,52.59
2023-05-19T02:28:12.053Z,52.61
2023-05-19T02:29:12.113Z,52.78
2023-05-19T02:31:12.049Z,52.78
2023-05-19T02:32:12.122Z,52.65
2023-05-19T02:33:12.114Z,52.78
2023-05-19T02:34:12.103Z,52.83
2023-05-19T02:35:12.099Z,52.95
2023-05-19T02:36:12.086Z,52.95
2023-05-19T02:37:12.095Z,52.99
2023-05-19T02:38:12.065Z,53.01
2023-05-19T02:39:12.103Z,53.19
2023-05-19T02:40:12.091Z,53.37
2023-05-19T02:41:12.102Z,53.40
2023-05-19T02:42:12.110Z,53.25
2023-05-19T02:43:12.086Z,53.25
2023-05-19T02:44:12.122Z,53.41
2023-05-19T02:45:12.101Z,53.52
2023-05-19T02:46:12.138Z,53.69
2023-05-19T02:48:12.176Z,53.83
2023-05-19T02:49:12.086Z,53.75
2023-05-19T02:50:12.113Z,53.75
2023-05-19T02:51:12.081Z,53.68
2023-05-19T02:52:12.142Z,53.60
2023-05-19T02:54:12.158Z,53.73
2023-05-19T02:55:12.163Z,53.73
2023-05-19T02:56:12.119Z,53.67
2023-05-19T02:57:12.162Z,53.67
2023-05-19T02:58:12.126Z,53.84
2023-05-19T02:59:12.117Z,53.86
2023-05-19T03:01:12.150Z,53.82
2023-05-19T03:02:12.188Z,53.85
2023-05-19T03:03:12.234Z,53.97
2023-05-19T03:04:12.145Z,53.97
2023-05-19T03:05:12.152Z,53.99
2023-05-19T03:06:12.171Z,54.10
2023-05-19T03:07:12.159Z,54.07
2023-05-19T03:08:12.195Z,53.94
2023-05-19T03:09:12.121Z,54.08
2023-05-19T03:10:12.128Z,54.11
2023-05-19T03:11:12.217Z,53.99
2023-05-19T03:12:12.149Z,53.96
2023-05-19T03:13:12.153Z,53.85
2023-05-19T03:14:12.150Z,54.08
2023-05-19T03:16:12.267Z,54.27
2023-05-19T03:17:12.193Z,54.27
2023-05-19T03:18:12.228Z,54.75
2023-05-19T03:19:12.219Z,54.75
2023-05-19T03:20:12.151Z,54.77
2023-05-19T03:21:12.195Z,54.82
2023-05-19T03:22:12.259Z,54.63
2023-05-19T03:24:12.214Z,54.83
2023-05-19T03:25:12.192Z,54.83
2023-05-19T03:26:12.238Z,54.47
2023-05-19T03:27:12.242Z,54.47
2023-05-19T03:28:12.224Z,54.34
2023-05-19T03:29:12.211Z,54.38
2023-05-19T03:30:12.187Z,54.38
2023-05-19T03:31:12.227Z,54.55
2023-05-19T03:32:12.289Z,54.72
2023-05-19T03:33:12.306Z,54.68
2023-05-19T03:34:12.270Z,54.97
2023-05-19T03:35:12.266Z,54.97
2023-05-19T03:36:12.266Z,54.96
2023-05-19T03:37:12.292Z,55.09
2023-05-19T03:38:12.203Z,55.09
2023-05-19T03:39:12.269Z,55.19
2023-05-19T03:40:12.263Z,55.39
2023-05-19T03:41:12.240Z,55.53
2023-05-19T03:42:12.277Z,55.45
2023-05-19T03:43:12.243Z,55.45
2023-05-19T03:44:12.250Z,55.42
2023-05-19T03:45:12.234Z,55.75
2023-05-19T03:46:12.266Z,55.75
2023-05-19T03:47:12.292Z,55.70
2023-05-19T03:48:12.253Z,55.70
2023-05-19T03:49:12.289Z,55.57
2023-05-19T03:50:12.248Z,56.16
2023-05-19T03:51:12.289Z,56.43
2023-05-19T03:52:12.306Z,56.43
2023-05-19T03:53:12.262Z,56.33
2023-05-19T03:54:12.279Z,56.06
2023-05-19T03:55:12.294Z,56.06
2023-05-19T03:56:12.280Z,55.93
2023-05-19T03:57:12.316Z,55.95
2023-05-19T03:58:12.303Z,56.13
2023-05-19T03:59:12.262Z,56.13
2023-05-19T04:00:12.348Z,56.04
2023-05-19T04:01:12.325Z,56.13
2023-05-19T04:02:12.365Z,56.54
2023-05-19T04:03:12.561Z,56.60
2023-05-19T04:04:12.321Z,56.60
2023-05-19T04:05:12.334Z,56.60
2023-05-19T04:06:12.331Z,56.53
2023-05-19T04:07:12.271Z,56.88
2023-05-19T04:08:12.334Z,56.91
2023-05-19T04:09:12.287Z,57.24
2023-05-19T04:10:12.349Z,57.15
2023-05-19T04:11:12.325Z,57.17
2023-05-19T04:12:12.339Z,57.04
2023-05-19T04:13:12.338Z,56.73
2023-05-19T04:14:12.308Z,56.73
2023-05-19T04:16:12.404Z,56.65
2023-05-19T04:17:12.353Z,56.64
2023-05-19T04:18:12.462Z,56.41
2023-05-19T04:19:12.374Z,56.12
2023-05-19T04:20:12.309Z,56.12
2023-05-19T04:21:12.363Z,56.08
2023-05-19T04:22:12.402Z,55.95
2023-05-19T04:23:12.372Z,55.82
2023-05-19T04:24:12.363Z,55.82
2023-05-19T04:25:12.364Z,55.58
2023-05-19T04:26:12.404Z,55.25
2023-05-19T04:27:12.446Z,55.48
2023-05-19T04:28:12.403Z,55.41
2023-05-19T04:31:12.459Z,55.47
2023-05-19T04:32:12.405Z,55.34
2023-05-19T04:33:12.402Z,55.34
2023-05-19T04:34:12.393Z,55.23
2023-05-19T04:35:12.361Z,55.18
2023-05-19T04:36:12.447Z,55.63
2023-05-19T04:37:12.422Z,55.63
2023-05-19T04:38:12.389Z,55.45
2023-05-19T04:39:12.449Z,55.30
2023-05-19T04:40:12.396Z,55.31
2023-05-19T04:41:12.405Z,55.23
2023-05-19T04:42:12.427Z,55.23
2023-05-19T04:43:12.433Z,55.26
2023-05-19T04:44:12.414Z,55.17
2023-05-19T04:45:12.475Z,55.00
2023-05-19T04:46:13.865Z,55.00
2023-05-19T04:47:12.515Z,54.81
2023-05-19T04:48:12.452Z,54.77
2023-05-19T04:49:12.423Z,54.77
2023-05-19T04:50:12.464Z,54.67
2023-05-19T04:51:12.429Z,54.71
2023-05-19T04:52:12.410Z,54.72
2023-05-19T04:54:12.465Z,54.52
2023-05-19T04:56:12.418Z,54.43
2023-05-19T04:57:12.439Z,54.47
2023-05-19T04:58:12.446Z,54.56
2023-05-19T04:59:12.415Z,54.56
2023-05-19T05:00:12.454Z,54.37
2023-05-19T05:01:12.484Z,54.51
2023-05-19T05:02:12.612Z,54.37
2023-05-19T05:05:12.456Z,54.16
2023-05-19T05:07:12.510Z,54.33
2023-05-19T05:08:12.469Z,54.34
2023-05-19T05:09:12.468Z,54.65
2023-05-19T05:10:12.488Z,54.56
2023-05-19T05:11:12.483Z,54.42
2023-05-19T05:12:12.467Z,54.42
2023-05-19T05:13:12.509Z,54.29
2023-05-19T05:14:12.455Z,54.06
2023-05-19T05:15:12.498Z,54.15
2023-05-19T05:16:12.564Z,54.15
2023-05-19T05:17:12.443Z,54.02
2023-05-19T05:18:12.511Z,53.99
2023-05-19T05:19:12.529Z,53.91
2023-05-19T05:20:12.494Z,53.91
2023-05-19T05:21:12.560Z,53.97
2023-05-19T05:22:12.523Z,54.10
2023-05-19T05:23:12.529Z,54.10
2023-05-19T05:24:12.541Z,54.35
2023-05-19T05:25:12.480Z,54.35
2023-05-19T05:26:12.516Z,54.35
2023-05-19T05:27:12.493Z,54.20
2023-05-19T05:28:12.510Z,54.66
2023-05-19T05:29:12.519Z,54.87
2023-05-19T05:30:12.480Z,54.92
2023-05-19T05:31:12.534Z,54.89
2023-05-19T05:32:12.618Z,54.61
2023-05-19T05:33:12.753Z,54.55
2023-05-19T05:34:12.532Z,54.58
2023-05-19T05:35:12.545Z,54.26
2023-05-19T05:36:12.512Z,54.26
2023-05-19T05:37:13.869Z,54.37
2023-05-19T05:39:12.505Z,54.24
2023-05-19T05:40:12.662Z,54.50
2023-05-19T05:41:12.524Z,54.59
2023-05-19T05:42:12.522Z,54.80
2023-05-19T05:43:12.541Z,54.80
2023-05-19T05:44:12.574Z,54.74
2023-05-19T05:46:12.585Z,54.60
2023-05-19T05:47:12.585Z,54.79
2023-05-19T05:48:12.641Z,54.79
2023-05-19T05:49:12.601Z,55.74
2023-05-19T05:50:12.601Z,55.74
2023-05-19T05:51:12.589Z,55.82
2023-05-19T05:53:12.588Z,55.91
2023-05-19T05:54:12.574Z,55.87
2023-05-19T05:55:12.588Z,55.74
2023-05-19T05:56:12.556Z,55.15
2023-05-19T05:57:12.583Z,54.78
2023-05-19T05:58:12.631Z,55.26
2023-05-19T05:59:12.577Z,55.26
2023-05-19T06:00:12.553Z,55.55
2023-05-19T06:01:12.644Z,55.41
2023-05-19T06:02:12.629Z,55.41
2023-05-19T06:03:12.658Z,55.26
2023-05-19T06:04:12.612Z,55.45
2023-05-19T06:05:12.695Z,55.48
2023-05-19T06:06:12.608Z,55.48
2023-05-19T06:07:12.612Z,55.34
2023-05-19T06:08:12.644Z,55.12
2023-05-19T06:09:12.571Z,54.99
2023-05-19T06:10:12.637Z,55.26
2023-05-19T06:12:12.626Z,55.30
2023-05-19T06:13:12.634Z,55.14
2023-05-19T06:14:12.629Z,55.14
2023-05-19T06:15:12.678Z,55.39
2023-05-19T06:16:12.696Z,55.39
2023-05-19T06:18:12.705Z,54.52
2023-05-19T06:19:12.727Z,54.57
2023-05-19T06:20:12.644Z,54.51
2023-05-19T06:22:12.637Z,54.71
2023-05-19T06:23:12.684Z,54.84
2023-05-19T06:24:12.665Z,54.67
2023-05-19T06:25:12.669Z,54.94
2023-05-19T06:26:12.710Z,55.42
2023-05-19T06:27:12.693Z,55.42
2023-05-19T06:28:12.674Z,55.42
2023-05-19T06:29:12.647Z,55.24
2023-05-19T06:31:12.704Z,54.99
2023-05-19T06:32:12.667Z,54.99
2023-05-19T06:33:12.671Z,55.27
2023-05-19T06:34:12.810Z,55.09
2023-05-19T06:35:12.633Z,55.09
2023-05-19T06:36:12.694Z,54.79
2023-05-19T06:37:12.698Z,54.73
2023-05-19T06:38:12.696Z,54.62
2023-05-19T06:39:12.688Z,54.79
2023-05-19T06:40:12.713Z,54.73
2023-05-19T06:41:12.694Z,54.73
2023-05-19T06:42:12.873Z,54.84
2023-05-19T06:43:12.727Z,54.73
2023-05-19T06:44:12.750Z,54.63
2023-05-19T06:45:12.742Z,54.63
2023-05-19T06:46:12.744Z,54.60
2023-05-19T06:47:12.828Z,54.52
2023-05-19T06:48:12.756Z,54.48
2023-05-19T06:49:12.789Z,54.48
2023-05-19T06:50:12.747Z,54.59
2023-05-19T06:51:12.728Z,54.69
2023-05-19T06:52:12.751Z,54.99
2023-05-19T06:53:12.740Z,54.99
2023-05-19T06:54:12.727Z,55.01
2023-05-19T06:55:12.752Z,54.96
2023-05-19T06:56:12.778Z,55.02
2023-05-19T06:57:12.747Z,55.02
2023-05-19T06:58:12.714Z,54.73
2023-05-19T06:59:12.708Z,54.56
2023-05-19T07:00:14.610Z,54.79
2023-05-19T07:01:12.787Z,54.61
2023-05-19T07:02:12.895Z,54.61
2023-05-19T07:03:12.872Z,54.79
2023-05-19T07:04:12.851Z,54.79
2023-05-19T07:05:12.811Z,54.64
2023-05-19T07:08:12.773Z,54.38
2023-05-19T07:09:12.748Z,54.38
2023-05-19T07:10:12.797Z,54.19
2023-05-19T07:11:12.778Z,54.19
2023-05-19T07:12:12.773Z,54.20
2023-05-19T07:13:12.792Z,54.13
2023-05-19T07:14:12.767Z,54.26
2023-05-19T07:15:12.779Z,54.20
2023-05-19T07:16:12.836Z,54.15
2023-05-19T07:17:12.826Z,54.15
2023-05-19T07:18:12.932Z,54.07
2023-05-19T07:19:12.863Z,54.16
2023-05-19T07:20:12.792Z,53.99
2023-05-19T07:22:12.852Z,54.16
2023-05-19T07:23:12.820Z,54.16
2023-05-19T07:24:12.858Z,54.07
2023-05-19T07:25:12.781Z,53.94
2023-05-19T07:26:12.822Z,53.75
2023-05-19T07:27:12.836Z,53.75
2023-05-19T07:28:12.811Z,53.67
2023-05-19T07:29:12.860Z,53.88
2023-05-19T07:30:12.805Z,54.05
2023-05-19T07:31:12.838Z,54.06
2023-05-19T07:32:12.896Z,54.06
2023-05-19T07:33:12.854Z,53.82
2023-05-19T07:34:12.829Z,53.76
2023-05-19T07:35:12.880Z,53.43
2023-05-19T07:36:12.850Z,53.55
2023-05-19T07:37:12.862Z,53.11
2023-05-19T07:38:12.833Z,53.11
2023-05-19T07:39:12.922Z,53.19
2023-05-19T07:40:12.847Z,53.02
2023-05-19T07:41:12.820Z,52.81
2023-05-19T07:42:12.857Z,52.95
2023-05-19T07:43:12.824Z,53.46
2023-05-19T07:44:13.146Z,53.48
2023-05-19T07:45:12.832Z,53.82
2023-05-19T07:46:12.896Z,53.96
2023-05-19T07:47:12.884Z,54.05
2023-05-19T07:48:12.930Z,53.89
2023-05-19T07:49:12.908Z,54.26
2023-05-19T07:50:12.924Z,54.26
2023-05-19T07:51:12.859Z,54.30
2023-05-19T07:52:12.882Z,54.63
2023-05-19T07:53:12.901Z,54.67
2023-05-19T07:54:12.845Z,54.46
2023-05-19T07:55:12.876Z,54.40
2023-05-19T07:56:12.915Z,54.21
2023-05-19T07:57:12.924Z,53.82
2023-05-19T07:58:12.933Z,53.76
2023-05-19T07:59:12.853Z,53.76
2023-05-19T08:00:12.928Z,53.34
2023-05-19T08:01:12.941Z,53.55
2023-05-19T08:02:13.025Z,53.41
2023-05-19T08:03:13.220Z,53.34
2023-05-19T08:04:13.357Z,53.34
2023-05-19T08:05:12.899Z,53.18
2023-05-19T08:06:12.949Z,53.42
2023-05-19T08:07:12.896Z,53.24
2023-05-19T08:09:12.892Z,53.17
2023-05-19T08:10:12.946Z,53.51
2023-05-19T08:11:12.946Z,53.76
2023-05-19T08:13:12.953Z,53.89
2023-05-19T08:14:12.969Z,53.10
2023-05-19T08:15:12.967Z,53.10
2023-05-19T08:16:12.994Z,53.55
2023-05-19T08:17:12.906Z,53.13
2023-05-19T08:18:13.031Z,53.32
2023-05-19T08:19:13.012Z,53.28
2023-05-19T08:20:12.952Z,53.28
2023-05-19T08:21:13.002Z,53.27
2023-05-19T08:22:12.940Z,53.46
2023-05-19T08:23:12.970Z,53.46
2023-05-19T08:24:12.921Z,53.18
2023-05-19T08:25:12.951Z,53.13
2023-05-19T08:26:12.939Z,53.09
2023-05-19T08:27:12.977Z,52.77
2023-05-19T08:28:12.974Z,52.84
2023-05-19T08:29:12.968Z,52.88
2023-05-19T08:30:12.976Z,53.35
2023-05-19T08:31:13.038Z,53.48
2023-05-19T08:32:13.330Z,53.48
2023-05-19T08:33:13.061Z,53.22
2023-05-19T08:34:12.996Z,53.25
2023-05-19T08:35:12.948Z,53.25
2023-05-19T08:36:13.005Z,53.12
2023-05-19T08:37:13.010Z,53.12
2023-05-19T08:38:12.970Z,52.86
2023-05-19T08:39:13.007Z,52.80
2023-05-19T08:40:13.006Z,52.62
2023-05-19T08:41:13.022Z,52.78
2023-05-19T08:42:13.041Z,52.63
2023-05-19T08:43:12.995Z,52.97
2023-05-19T08:44:13.023Z,53.13
2023-05-19T08:45:13.010Z,53.06
2023-05-19T08:46:13.271Z,53.36
2023-05-19T08:47:12.996Z,53.36
2023-05-19T08:48:13.062Z,53.19
2023-05-19T08:50:13.058Z,53.12
2023-05-19T08:51:13.040Z,53.12
2023-05-19T08:52:13.043Z,53.32
2023-05-19T08:53:24.986Z,53.71
2023-05-19T08:54:12.996Z,53.85
2023-05-19T08:55:13.116Z,53.53
2023-05-19T08:56:13.025Z,53.53
2023-05-19T08:57:13.041Z,53.43
2023-05-19T08:58:13.082Z,53.51
2023-05-19T08:59:13.079Z,53.51
2023-05-19T09:00:13.034Z,53.68
2023-05-19T09:01:13.173Z,53.27
2023-05-19T09:02:13.013Z,53.21
2023-05-19T09:03:22.869Z,53.33
2023-05-19T09:04:13.218Z,53.26
2023-05-19T09:05:13.103Z,53.02
2023-05-19T09:06:13.043Z,52.95
2023-05-19T09:07:13.041Z,52.83
2023-05-19T09:09:13.100Z,53.30
2023-05-19T09:10:13.073Z,53.25
2023-05-19T09:11:13.107Z,53.09
2023-05-19T09:12:13.069Z,53.35
2023-05-19T09:13:13.069Z,53.37
2023-05-19T09:14:13.060Z,53.26
2023-05-19T09:15:13.150Z,53.34
2023-05-19T09:16:13.125Z,53.16
2023-05-19T09:17:13.099Z,52.97
2023-05-19T09:18:13.112Z,52.72
2023-05-19T09:19:13.165Z,52.74
2023-05-19T09:20:13.177Z,52.54
2023-05-19T09:21:13.128Z,52.54
2023-05-19T09:22:13.096Z,52.74
2023-05-19T09:23:13.116Z,52.71
2023-05-19T09:24:13.133Z,52.91
2023-05-19T09:25:13.162Z,52.91
2023-05-19T09:26:13.153Z,52.75
2023-05-19T09:27:13.106Z,53.12
2023-05-19T09:28:13.143Z,53.38
2023-05-19T09:29:13.151Z,53.38
2023-05-19T09:30:13.148Z,53.37
2023-05-19T09:31:13.187Z,53.19
2023-05-19T09:32:13.135Z,53.00
2023-05-19T09:34:13.121Z,52.90
2023-05-19T09:35:13.135Z,53.02
2023-05-19T09:36:13.203Z,52.64
2023-05-19T09:37:13.154Z,52.64
2023-05-19T09:38:13.142Z,52.44
2023-05-19T09:39:13.151Z,52.12
2023-05-19T09:40:13.159Z,52.68
2023-05-19T09:41:13.154Z,52.88
2023-05-19T09:42:13.170Z,52.87
2023-05-19T09:43:13.110Z,52.91
2023-05-19T09:44:13.153Z,53.02
2023-05-19T09:45:13.208Z,53.00
2023-05-19T09:47:13.157Z,53.14
2023-05-19T09:48:13.158Z,53.14
2023-05-19T09:49:13.178Z,53.03
2023-05-19T09:50:13.182Z,52.77
2023-05-19T09:51:13.234Z,52.77
2023-05-19T09:52:13.203Z,52.35
2023-05-19T09:53:13.156Z,52.35
2023-05-19T09:54:13.192Z,52.34
2023-05-19T09:55:13.203Z,52.41
2023-05-19T09:56:13.140Z,52.11
2023-05-19T09:57:13.193Z,51.57
2023-05-19T09:59:13.223Z,51.62
2023-05-19T10:00:13.217Z,51.43
2023-05-19T10:01:13.234Z,51.39
2023-05-19T10:02:13.191Z,51.39
2023-05-19T10:03:13.260Z,51.31
2023-05-19T10:04:13.171Z,51.31
2023-05-19T10:05:13.290Z,51.08
2023-05-19T10:06:13.298Z,51.08
2023-05-19T10:07:13.246Z,51.29
2023-05-19T10:08:13.261Z,51.41
2023-05-19T10:09:13.201Z,51.41
2023-05-19T10:10:13.270Z,51.75
2023-05-19T10:11:13.234Z,51.50
2023-05-19T10:12:13.255Z,51.46
2023-05-19T10:13:13.264Z,51.79
2023-05-19T10:14:13.193Z,51.79
2023-05-19T10:15:13.244Z,51.47
2023-05-19T10:16:13.321Z,51.08
2023-05-19T10:17:13.227Z,51.08
2023-05-19T10:18:13.326Z,50.96
2023-05-19T10:19:13.281Z,50.89
2023-05-19T10:20:13.201Z,51.03
2023-05-19T10:21:13.249Z,51.17
2023-05-19T10:22:13.225Z,51.70
2023-05-19T10:23:13.225Z,50.66
2023-05-19T10:24:13.453Z,50.96
2023-05-19T10:25:13.270Z,51.05
2023-05-19T10:26:13.270Z,50.88
2023-05-19T10:27:13.250Z,50.91
2023-05-19T10:28:13.268Z,51.42
2023-05-19T10:29:13.281Z,51.56
2023-05-19T10:32:13.372Z,51.82
2023-05-19T10:33:13.369Z,51.82
2023-05-19T10:34:13.295Z,51.19
2023-05-19T10:35:13.251Z,51.20
2023-05-19T10:36:13.285Z,51.09
2023-05-19T10:37:13.312Z,50.51
2023-05-19T10:38:13.275Z,50.58
2023-05-19T10:40:13.315Z,50.36
2023-05-19T10:41:13.332Z,50.37
2023-05-19T10:42:13.295Z,50.37
2023-05-19T10:43:13.292Z,50.04
2023-05-19T10:44:13.332Z,50.22
2023-05-19T10:46:13.389Z,50.17
2023-05-19T10:47:13.488Z,50.08
2023-05-19T10:48:13.342Z,50.31
2023-05-19T10:49:13.314Z,50.50
2023-05-19T10:50:13.358Z,50.58
2023-05-19T10:51:13.338Z,50.54
2023-05-19T10:52:13.355Z,49.60
2023-05-19T10:53:13.329Z,49.60
2023-05-19T10:54:14.413Z,49.41
2023-05-19T10:55:13.352Z,49.41
2023-05-19T10:56:13.319Z,48.73
2023-05-19T10:57:13.396Z,48.81
2023-05-19T10:58:13.381Z,48.98
2023-05-19T10:59:13.385Z,49.21
2023-05-19T11:00:13.345Z,48.78
2023-05-19T11:01:13.333Z,49.08
2023-05-19T11:02:13.417Z,49.14
2023-05-19T11:03:13.480Z,48.93
2023-05-19T11:04:13.384Z,48.66
2023-05-19T11:05:13.374Z,49.07
2023-05-19T11:06:13.397Z,49.42
2023-05-19T11:07:13.369Z,49.61
2023-05-19T11:08:13.398Z,49.61
2023-05-19T11:09:13.337Z,50.06
2023-05-19T11:10:13.567Z,50.25
2023-05-19T11:11:13.371Z,50.05
2023-05-19T11:12:13.430Z,50.24
2023-05-19T11:13:14.951Z,50.07
2023-05-19T11:14:13.394Z,49.69
2023-05-19T11:15:13.391Z,50.11
2023-05-19T11:16:13.421Z,50.25
2023-05-19T11:17:13.368Z,50.72
2023-05-19T11:18:13.409Z,50.89
2023-05-19T11:19:13.488Z,50.94
2023-05-19T11:20:13.479Z,50.77
2023-05-19T11:21:13.444Z,50.83
2023-05-19T11:22:13.439Z,50.52
2023-05-19T11:23:13.454Z,50.72
2023-05-19T11:24:13.438Z,50.08
2023-05-19T11:25:13.444Z,49.84
2023-05-19T11:26:13.455Z,48.84
2023-05-19T11:27:13.388Z,48.84
2023-05-19T11:28:13.469Z,48.47
2023-05-19T11:29:13.462Z,48.26
2023-05-19T11:30:13.419Z,47.47
2023-05-19T11:31:13.428Z,47.89
2023-05-19T11:32:13.500Z,48.89
2023-05-19T11:33:13.525Z,48.89
2023-05-19T11:34:13.427Z,49.17
2023-05-19T11:36:13.468Z,48.48
2023-05-19T11:37:13.475Z,48.48
2023-05-19T11:38:13.418Z,48.58
2023-05-19T11:39:13.467Z,48.54
2023-05-19T11:40:13.512Z,48.95
2023-05-19T11:41:13.481Z,47.74
2023-05-19T11:42:13.476Z,48.10
2023-05-19T11:43:13.444Z,47.25
2023-05-19T11:44:13.503Z,47.12
2023-05-19T11:45:13.472Z,47.17
2023-05-19T11:46:13.551Z,47.17
2023-05-19T11:47:13.499Z,47.15
2023-05-19T11:48:13.586Z,47.05
2023-05-19T11:49:13.525Z,47.59
2023-05-19T11:50:13.489Z,47.26
2023-05-19T11:51:13.467Z,46.71
2023-05-19T11:52:13.513Z,46.60
2023-05-19T11:53:13.548Z,47.07
2023-05-19T11:55:13.535Z,47.09
2023-05-19T11:56:13.457Z,47.09
2023-05-19T11:57:13.457Z,46.76
2023-05-19T11:58:13.529Z,46.98
2023-05-19T12:00:13.534Z,47.31
2023-05-19T12:01:13.537Z,46.92
2023-05-19T12:02:13.598Z,47.04
2023-05-19T12:03:13.773Z,47.05
2023-05-19T12:04:13.484Z,47.12
2023-05-19T12:05:13.618Z,46.63
2023-05-19T12:06:13.557Z,46.71
2023-05-19T12:07:13.499Z,45.98
2023-05-19T12:08:13.536Z,45.63
2023-05-19T12:09:13.497Z,45.15
2023-05-19T12:10:13.550Z,45.17
2023-05-19T12:11:13.569Z,44.80
2023-05-19T12:12:13.599Z,44.80
2023-05-19T12:13:13.563Z,44.82
2023-05-19T12:14:13.529Z,44.82
2023-05-19T12:15:13.540Z,43.78
2023-05-19T12:16:13.577Z,44.35
2023-05-19T12:17:13.532Z,44.35
2023-05-19T12:18:13.581Z,44.25
2023-05-19T12:19:13.643Z,44.25
2023-05-19T12:20:13.591Z,44.17
2023-05-19T12:21:13.586Z,44.26
2023-05-19T12:22:13.519Z,44.26
2023-05-19T12:23:13.548Z,44.40
2023-05-19T12:24:13.569Z,44.46
2023-05-19T12:25:13.532Z,44.89
2023-05-19T12:26:13.598Z,44.99
2023-05-19T12:27:13.608Z,45.14
2023-05-19T12:28:13.592Z,45.61
2023-05-19T12:29:13.554Z,45.61
2023-05-19T12:30:13.570Z,45.97
2023-05-19T12:31:13.662Z,46.41
2023-05-19T12:32:13.560Z,46.41
2023-05-19T12:33:13.624Z,46.56
2023-05-19T12:34:13.584Z,46.56
2023-05-19T12:35:13.557Z,46.61
2023-05-19T12:36:13.649Z,47.05
2023-05-19T12:37:13.586Z,46.92
2023-05-19T12:38:13.595Z,46.26
2023-05-19T12:39:13.620Z,46.03
2023-05-19T12:40:13.581Z,46.14
2023-05-19T12:41:13.605Z,45.45
2023-05-19T12:42:13.606Z,45.68
2023-05-19T12:43:13.574Z,45.47
2023-05-19T12:44:13.620Z,45.88
2023-05-19T12:45:13.676Z,45.46
2023-05-19T12:46:13.657Z,45.48
2023-05-19T12:47:13.595Z,45.72
2023-05-19T12:48:13.661Z,45.63
2023-05-19T12:49:13.643Z,45.41
2023-05-19T12:50:13.656Z,45.26
2023-05-19T12:51:13.647Z,45.31
2023-05-19T12:52:13.650Z,45.31
2023-05-19T12:53:13.613Z,45.24
2023-05-19T12:54:13.685Z,45.09
2023-05-19T12:55:13.745Z,44.91
2023-05-19T12:56:13.609Z,44.83
2023-05-19T12:57:13.661Z,45.27
2023-05-19T12:58:13.705Z,45.27
2023-05-19T12:59:15.318Z,44.87
2023-05-19T13:00:13.715Z,45.02
2023-05-19T13:01:13.848Z,45.02
2023-05-19T13:02:13.773Z,45.24
2023-05-19T13:03:13.761Z,45.70
2023-05-19T13:04:13.763Z,46.20
2023-05-19T13:05:13.672Z,45.99
2023-05-19T13:07:13.723Z,45.80
2023-05-19T13:08:13.710Z,45.80
2023-05-19T13:09:14.723Z,45.24
2023-05-19T13:10:13.688Z,45.20
2023-05-19T13:11:13.734Z,45.08
2023-05-19T13:12:13.682Z,45.08
2023-05-19T13:13:13.658Z,44.94
2023-05-19T13:14:13.701Z,44.45
2023-05-19T13:15:13.700Z,44.45
2023-05-19T13:16:13.736Z,44.87
2023-05-19T13:17:13.677Z,44.87
2023-05-19T13:18:13.743Z,45.20
2023-05-19T13:20:13.750Z,45.72
2023-05-19T13:21:13.718Z,45.93
2023-05-19T13:22:13.736Z,45.93
2023-05-19T13:23:13.762Z,46.22
2023-05-19T13:24:13.758Z,46.38
2023-05-19T13:25:13.701Z,46.17
2023-05-19T13:26:13.759Z,46.44
2023-05-19T13:27:13.738Z,46.28
2023-05-19T13:28:13.708Z,46.30
2023-05-19T13:29:13.758Z,46.34
2023-05-19T13:30:13.695Z,46.25
2023-05-19T13:31:13.799Z,46.53
2023-05-19T13:32:13.777Z,46.47
2023-05-19T13:33:13.862Z,46.41
2023-05-19T13:34:13.746Z,46.45
2023-05-19T13:35:13.746Z,46.31
2023-05-19T13:36:13.780Z,46.29
2023-05-19T13:37:13.852Z,46.57
2023-05-19T13:38:13.735Z,46.57
2023-05-19T13:39:13.719Z,46.60
2023-05-19T13:40:13.801Z,47.00
2023-05-19T13:41:15.208Z,46.46
2023-05-19T13:42:13.733Z,46.46
2023-05-19T13:43:13.771Z,46.39
2023-05-19T13:44:13.804Z,46.18
2023-05-19T13:45:13.815Z,46.22
2023-05-19T13:48:13.822Z,46.10
2023-05-19T13:49:13.805Z,46.00
2023-05-19T13:50:13.793Z,45.45
2023-05-19T13:51:13.767Z,45.88
2023-05-19T13:52:13.823Z,45.73
2023-05-19T13:53:13.837Z,45.95
2023-05-19T13:54:13.800Z,45.61
2023-05-19T13:55:13.829Z,45.61
2023-05-19T13:56:13.794Z,45.29
2023-05-19T13:57:13.799Z,45.09
2023-05-19T13:58:13.820Z,45.28
2023-05-19T13:59:13.801Z,45.28
2023-05-19T14:00:13.833Z,45.38
2023-05-19T14:01:13.821Z,45.85